Time;durP1;ratioP1;P1;durP2;ratioP2;P2;SDS_P1;SDS_P2;PMS_P1;PMS_P2;Temp;Humidity;BMP_temperature;BMP_pressure;BME280_temperature;BME280_humidity;BME280_pressure;Samples;Min_cycle;Max_cycle;Signal;HPM_P1;HPM_P2
2023/10/24 00:02:29;;;;;;;22.20;13.70;;;;;;;4.99;100.00;98827.33;273809;1267;23509;-82
2023/10/24 00:08:31;;;;;;;31.10;15.60;;;;;;;5.00;100.00;98822.77;273765;1266;22369;-81
2023/10/24 00:14:33;;;;;;;26.50;15.60;;;;;;;5.07;100.00;98822.77;273935;1267;22156;-82
2023/10/24 00:20:36;;;;;;;26.20;15.40;;;;;;;5.09;100.00;98816.86;272627;1267;23685;-82
2023/10/24 00:26:38;;;;;;;26.30;16.10;;;;;;;5.09;100.00;98812.11;272640;1251;23109;-84
2023/10/24 00:32:40;;;;;;;31.50;15.30;;;;;;;4.97;100.00;98807.80;273244;1267;22576;-82
2023/10/24 00:38:42;;;;;;;29.00;16.30;;;;;;;4.95;100.00;98801.70;272086;1267;22212;-82
2023/10/24 00:44:44;;;;;;;30.30;16.90;;;;;;;4.96;100.00;98794.44;273884;1267;24825;-83
2023/10/24 00:50:47;;;;;;;25.00;15.10;;;;;;;4.90;100.00;98793.56;273759;1267;22427;-82
2023/10/24 00:56:54;;;;;;;26.80;15.70;;;;;;;4.89;100.00;98792.23;273828;1267;23177;-82
2023/10/24 01:02:56;;;;;;;28.20;15.80;;;;;;;4.88;100.00;98791.20;273750;1266;22226;-82
2023/10/24 01:08:58;;;;;;;29.40;15.60;;;;;;;4.82;100.00;98785.97;273684;1267;22699;-82
2023/10/24 01:15:00;;;;;;;29.70;17.90;;;;;;;4.78;100.00;98777.73;273509;1266;22569;-82
2023/10/24 01:21:02;;;;;;;28.40;16.20;;;;;;;4.75;100.00;98781.44;272554;1267;22208;-82
2023/10/24 01:27:04;;;;;;;31.80;17.70;;;;;;;4.75;100.00;98774.38;272993;1267;22407;-82
2023/10/24 01:33:06;;;;;;;25.30;15.50;;;;;;;4.82;100.00;98765.73;273775;1267;22216;-84
2023/10/24 01:39:08;;;;;;;27.20;15.90;;;;;;;4.83;100.00;98770.34;271225;1266;22581;-83
2023/10/24 01:45:10;;;;;;;33.80;16.60;;;;;;;4.80;100.00;98785.45;271557;1267;22552;-82
2023/10/24 01:51:12;;;;;;;34.00;18.60;;;;;;;4.78;100.00;98787.09;271109;1267;22366;-83
2023/10/24 01:57:18;;;;;;;74.10;20.70;;;;;;;4.73;100.00;98777.11;273826;1268;22938;-82
2023/10/24 02:03:19;;;;;;;59.40;19.70;;;;;;;4.69;100.00;98769.77;273542;1266;22561;-83
2023/10/24 02:09:24;;;;;;;80.10;19.10;;;;;;;4.74;100.00;98768.83;273215;1267;22368;-83
2023/10/24 02:15:26;;;;;;;47.70;19.40;;;;;;;4.75;100.00;98763.15;271090;1267;22626;-80
2023/10/24 02:21:47;;;;;;;30.20;17.40;;;;;;;4.78;100.00;98761.61;271649;1267;23668;-82
2023/10/24 02:27:49;;;;;;;38.20;18.20;;;;;;;4.85;100.00;98756.54;273589;1267;22419;-83
2023/10/24 02:33:50;;;;;;;43.40;19.00;;;;;;;4.90;100.00;98751.73;273673;1267;22455;-82
2023/10/24 02:39:52;;;;;;;42.70;21.00;;;;;;;4.96;100.00;98743.86;273795;1267;22402;-82
2023/10/24 02:46:14;;;;;;;39.00;19.80;;;;;;;4.99;100.00;98729.35;273961;1267;22194;-83
2023/10/24 02:52:16;;;;;;;37.70;18.20;;;;;;;5.01;100.00;98728.55;272704;1267;23292;-82
2023/10/24 02:58:44;;;;;;;31.40;17.30;;;;;;;5.01;100.00;98725.93;274114;1267;22332;-82
2023/10/24 03:04:45;;;;;;;37.50;19.70;;;;;;;4.99;100.00;98715.08;272874;1267;22339;-82
2023/10/24 03:10:49;;;;;;;35.70;19.70;;;;;;;4.93;100.00;98718.87;273639;1267;23236;-83
2023/10/24 03:16:51;;;;;;;47.70;21.70;;;;;;;4.88;100.00;98709.13;273766;1266;22540;-83
2023/10/24 03:22:54;;;;;;;40.90;18.30;;;;;;;4.82;100.00;98703.36;272669;1266;22275;-83
2023/10/24 03:28:57;;;;;;;37.70;18.80;;;;;;;4.85;100.00;98712.14;273547;1267;22199;-83
2023/10/24 03:34:59;;;;;;;35.40;19.60;;;;;;;4.87;100.00;98691.56;273947;1269;22274;-82
2023/10/24 03:41:01;;;;;;;35.70;19.10;;;;;;;4.87;100.00;98681.34;271684;1266;22539;-82
2023/10/24 03:47:02;;;;;;;32.90;18.90;;;;;;;4.83;100.00;98684.89;271164;1267;22557;-84
2023/10/24 03:53:11;;;;;;;27.50;16.70;;;;;;;4.85;100.00;98694.38;272758;1263;22510;-83
2023/10/24 03:59:13;;;;;;;27.10;15.20;;;;;;;4.90;100.00;98694.61;272883;1267;22218;-84
2023/10/24 04:05:15;;;;;;;26.80;16.30;;;;;;;4.94;100.00;98682.17;272332;1267;22491;-83
2023/10/24 04:11:19;;;;;;;29.10;16.10;;;;;;;4.91;100.00;98671.02;273172;1267;22187;-83
2023/10/24 04:17:21;;;;;;;29.20;15.40;;;;;;;4.92;100.00;98658.86;273688;1267;23283;-83
2023/10/24 04:23:26;;;;;;;29.90;15.80;;;;;;;4.92;100.00;98674.74;273656;1267;22350;-82
2023/10/24 04:29:33;;;;;;;25.80;14.80;;;;;;;4.90;100.00;98675.92;272241;1267;22563;-83
2023/10/24 04:35:51;;;;;;;27.90;17.10;;;;;;;4.91;100.00;98674.41;271609;1267;22555;-85
2023/10/24 04:41:54;;;;;;;35.10;18.20;;;;;;;4.91;100.00;98663.63;271957;1267;22188;-83
2023/10/24 04:47:55;;;;;;;27.30;16.70;;;;;;;4.96;100.00;98668.19;271865;1267;23447;-83
2023/10/24 04:53:57;;;;;;;33.90;19.50;;;;;;;5.00;100.00;98682.41;273718;1267;22473;-83
2023/10/24 04:59:59;;;;;;;35.60;19.00;;;;;;;5.09;100.00;98673.13;273826;1267;22394;-84
2023/10/24 05:06:01;;;;;;;29.40;18.80;;;;;;;5.13;100.00;98662.07;273588;1267;23537;-83
2023/10/24 05:12:05;;;;;;;32.70;19.40;;;;;;;5.15;100.00;98654.77;273766;1267;22260;-84
2023/10/24 05:18:11;;;;;;;31.40;19.80;;;;;;;5.15;100.00;98657.17;273680;1267;22194;-84
2023/10/24 05:24:16;;;;;;;29.40;19.00;;;;;;;5.23;100.00;98643.88;272776;1251;22664;-84
2023/10/24 05:30:17;;;;;;;28.00;17.00;;;;;;;5.24;100.00;98636.55;273299;1267;22381;-84
2023/10/24 05:36:19;;;;;;;28.70;16.30;;;;;;;5.29;100.00;98646.77;273555;1267;23196;-83
2023/10/24 05:42:21;;;;;;;27.80;16.90;;;;;;;5.32;100.00;98668.64;273772;1267;23596;-84
2023/10/24 05:48:25;;;;;;;25.50;15.30;;;;;;;5.33;100.00;98669.81;273552;1267;24363;-84
2023/10/24 05:54:27;;;;;;;26.60;17.00;;;;;;;5.37;100.00;98681.63;272599;1267;23608;-83
2023/10/24 06:00:38;;;;;;;29.60;17.60;;;;;;;5.44;100.00;98680.98;273635;1267;137361;-83
2023/10/24 06:06:46;;;;;;;32.30;18.00;;;;;;;5.48;100.00;98669.67;273746;1267;22374;-83
2023/10/24 06:12:48;;;;;;;30.00;18.20;;;;;;;5.54;100.00;98663.85;273663;1269;23047;-83
2023/10/24 06:18:53;;;;;;;31.70;19.70;;;;;;;5.64;100.00;98646.98;273649;1267;23558;-83
2023/10/24 06:25:15;;;;;;;35.20;17.70;;;;;;;5.72;100.00;98643.74;273782;1267;22422;-83
2023/10/24 06:31:17;;;;;;;29.80;17.00;;;;;;;5.82;100.00;98641.30;273519;1267;25262;-83
2023/10/24 06:37:22;;;;;;;31.10;16.70;;;;;;;5.98;100.00;98648.92;272976;1267;23502;-83
2023/10/24 06:43:26;;;;;;;34.30;18.30;;;;;;;6.20;100.00;98652.30;273594;1269;22508;-83
2023/10/24 06:49:27;;;;;;;26.40;16.40;;;;;;;6.40;100.00;98648.09;273480;1267;22549;-84
2023/10/24 06:55:29;;;;;;;39.00;18.60;;;;;;;6.64;100.00;98651.63;273548;1264;22524;-84
2023/10/24 07:01:32;;;;;;;30.30;18.60;;;;;;;7.04;100.00;98635.02;272847;1267;22537;-82
2023/10/24 07:07:35;;;;;;;28.20;17.20;;;;;;;7.53;100.00;98623.88;272802;1269;23348;-84
2023/10/24 07:13:37;;;;;;;29.60;17.40;;;;;;;8.03;100.00;98627.41;273766;1267;22450;-84
2023/10/24 07:19:43;;;;;;;26.30;16.00;;;;;;;8.56;100.00;98607.59;272989;1267;22462;-82
2023/10/24 07:25:45;;;;;;;23.30;14.40;;;;;;;8.86;100.00;98602.35;273661;1267;22442;-82
2023/10/24 07:31:50;;;;;;;24.70;15.60;;;;;;;9.15;100.00;98598.61;273685;1266;22444;-84
2023/10/24 07:37:53;;;;;;;20.90;13.10;;;;;;;9.39;100.00;98610.64;273612;1267;23042;-85
2023/10/24 07:43:58;;;;;;;24.60;14.00;;;;;;;9.65;100.00;98619.63;273727;1267;22416;-81
2023/10/24 07:50:28;;;;;;;20.80;12.70;;;;;;;9.91;100.00;98618.59;271449;1269;22985;-82
2023/10/24 07:56:32;;;;;;;23.30;14.10;;;;;;;10.18;100.00;98613.17;273180;1267;22613;-81
2023/10/24 08:02:34;;;;;;;20.10;11.90;;;;;;;10.49;100.00;98591.48;273631;1266;23020;-82
2023/10/24 08:08:36;;;;;;;18.70;11.70;;;;;;;10.83;100.00;98560.26;273702;1267;22419;-81
2023/10/24 08:21:58;;;;;;;16.10;11.10;;;;;;;11.73;100.00;98519.42;273337;1267;22548;-82
2023/10/24 08:28:00;;;;;;;20.00;12.00;;;;;;;12.08;100.00;98519.29;272243;1267;22553;-82
2023/10/24 08:34:02;;;;;;;17.90;11.60;;;;;;;12.14;100.00;98527.48;272070;1267;22542;-82
2023/10/24 08:40:04;;;;;;;14.80;11.00;;;;;;;12.14;100.00;98531.96;271095;1267;22503;-82
2023/10/24 08:46:06;;;;;;;17.20;11.60;;;;;;;12.55;100.00;98529.16;271503;1270;22546;-82
2023/10/24 08:52:09;;;;;;;23.80;12.60;;;;;;;13.12;100.00;98517.88;271209;1267;22547;-82
2023/10/24 08:58:11;;;;;;;17.20;11.40;;;;;;;13.63;100.00;98506.80;273080;1267;22492;-82
2023/10/24 09:04:13;;;;;;;17.30;11.00;;;;;;;13.90;100.00;98486.83;273560;1267;24192;-82
2023/10/24 09:10:20;;;;;;;16.60;11.30;;;;;;;13.92;100.00;98483.58;273579;1267;22475;-83
2023/10/24 09:16:22;;;;;;;20.30;13.10;;;;;;;13.85;100.00;98486.08;273374;1268;22251;-83
2023/10/24 09:22:26;;;;;;;20.60;13.40;;;;;;;13.68;100.00;98484.70;272401;1267;24414;-82
2023/10/24 09:28:33;;;;;;;20.60;14.40;;;;;;;13.54;100.00;98488.90;273209;1267;22525;-82
2023/10/24 09:34:35;;;;;;;22.00;14.70;;;;;;;13.44;100.00;98508.95;273553;1267;22870;-82
2023/10/24 09:40:39;;;;;;;29.40;16.90;;;;;;;13.36;100.00;98523.55;271644;1267;22544;-82
2023/10/24 09:46:47;;;;;;;26.00;17.20;;;;;;;13.58;100.00;98505.30;273335;1269;23529;-83
2023/10/24 09:52:49;;;;;;;27.50;17.50;;;;;;;13.87;100.00;98481.59;272874;1267;22384;-82
2023/10/24 09:58:51;;;;;;;25.90;17.00;;;;;;;13.99;100.00;98459.77;273693;1269;22185;-82
2023/10/24 10:04:53;;;;;;;26.40;15.20;;;;;;;14.03;100.00;98442.98;273546;1267;22381;-82
2023/10/24 10:10:55;;;;;;;22.30;15.10;;;;;;;14.15;100.00;98429.63;273675;1267;23233;-82
2023/10/24 10:17:14;;;;;;;22.60;15.10;;;;;;;14.30;100.00;98409.89;273689;1267;22177;-84
2023/10/24 10:23:43;;;;;;;23.10;14.80;;;;;;;14.33;100.00;98410.61;273711;1268;22362;-84
2023/10/24 10:30:00;;;;;;;28.20;15.00;;;;;;;14.10;100.00;98403.48;272452;1267;22872;-84
2023/10/24 10:36:09;;;;;;;21.30;13.80;;;;;;;13.69;100.00;98390.54;271790;1266;22418;-84
2023/10/24 10:42:51;;;;;;;17.40;12.80;;;;;;;13.61;100.00;98383.16;273585;1269;23595;-82
2023/10/24 10:48:59;;;;;;;22.40;14.60;;;;;;;13.76;100.00;98380.08;273650;1267;23398;-82
2023/10/24 10:55:07;;;;;;;23.40;14.60;;;;;;;13.89;100.00;98371.98;273829;1264;22253;-82
2023/10/24 11:01:39;;;;;;;20.70;12.50;;;;;;;14.02;100.00;98360.27;273352;1267;22195;-82
2023/10/24 11:07:57;;;;;;;16.90;12.10;;;;;;;14.15;100.00;98350.36;273468;1260;22370;-83
2023/10/24 11:14:22;;;;;;;20.20;12.70;;;;;;;14.24;100.00;98324.60;273625;1269;23301;-82
2023/10/24 11:20:24;;;;;;;27.30;13.00;;;;;;;14.21;100.00;98307.02;273560;1267;22423;-83
2023/10/24 11:26:26;;;;;;;17.10;11.20;;;;;;;14.34;100.00;98287.81;273614;1267;22420;-82
2023/10/24 11:32:31;;;;;;;23.30;12.90;;;;;;;14.41;100.00;98295.88;273552;1267;23296;-82
2023/10/24 11:38:34;;;;;;;18.50;11.90;;;;;;;14.36;100.00;98312.01;273256;1267;22538;-82
2023/10/24 11:44:35;;;;;;;19.50;11.90;;;;;;;14.44;100.00;98308.66;273742;1267;23641;-83
2023/10/24 11:50:45;;;;;;;18.10;10.40;;;;;;;14.59;100.00;98305.67;273580;1269;22307;-82
2023/10/24 11:56:48;;;;;;;17.10;10.70;;;;;;;14.62;100.00;98324.28;273468;1267;22390;-83
2023/10/24 12:02:55;;;;;;;15.90;10.80;;;;;;;14.59;100.00;98332.59;273748;1251;22481;-82
2023/10/24 12:08:59;;;;;;;14.80;9.40;;;;;;;14.60;100.00;98333.29;273672;1267;22194;-82
2023/10/24 12:15:01;;;;;;;15.00;9.70;;;;;;;14.72;100.00;98330.12;272996;1267;26104;-81
2023/10/24 12:21:03;;;;;;;20.30;8.80;;;;;;;14.83;100.00;98320.02;273175;1267;22338;-83
2023/10/24 12:27:04;;;;;;;13.60;8.50;;;;;;;14.89;100.00;98300.61;273583;1267;22387;-83
2023/10/24 12:33:06;;;;;;;14.00;7.10;;;;;;;14.94;100.00;98291.55;273531;1267;22395;-82
2023/10/24 12:39:08;;;;;;;7.90;5.50;;;;;;;14.98;100.00;98282.11;273525;1267;22487;-83
2023/10/24 12:45:09;;;;;;;11.30;5.20;;;;;;;14.98;100.00;98270.69;273511;1267;22303;-83
2023/10/24 12:51:12;;;;;;;11.40;5.90;;;;;;;14.96;100.00;98260.27;272959;1266;23309;-83
2023/10/24 12:57:14;;;;;;;9.30;6.00;;;;;;;14.92;100.00;98250.72;272766;1267;22434;-84
2023/10/24 13:03:19;;;;;;;9.70;6.60;;;;;;;14.89;100.00;98241.40;271370;1267;22575;-82
2023/10/24 13:09:23;;;;;;;10.90;7.50;;;;;;;14.84;100.00;98215.77;273480;1267;22380;-82
2023/10/24 13:15:24;;;;;;;12.10;7.60;;;;;;;14.77;100.00;98199.84;273698;1267;22426;-82
2023/10/24 13:21:26;;;;;;;10.70;7.10;;;;;;;14.70;100.00;98190.60;273643;1262;22421;-82
2023/10/24 13:27:28;;;;;;;12.20;7.80;;;;;;;14.64;100.00;98182.84;273567;1264;22268;-82
2023/10/24 13:33:30;;;;;;;11.90;7.50;;;;;;;14.58;100.00;98170.76;273733;1267;22494;-82
2023/10/24 13:39:32;;;;;;;12.30;7.00;;;;;;;14.52;100.00;98167.78;274061;1267;22172;-81
2023/10/24 13:45:34;;;;;;;11.40;8.00;;;;;;;14.47;100.00;98162.53;273662;1267;22418;-83
2023/10/24 13:51:36;;;;;;;13.80;8.30;;;;;;;14.41;100.00;98155.38;273741;1267;22405;-82
2023/10/24 13:57:38;;;;;;;12.90;9.10;;;;;;;14.36;100.00;98142.65;273632;1267;22380;-82
2023/10/24 14:03:39;;;;;;;13.00;9.10;;;;;;;14.32;100.00;98134.31;273649;1266;22479;-82
2023/10/24 14:09:41;;;;;;;15.50;8.70;;;;;;;14.29;100.00;98128.80;273296;1267;22194;-82
2023/10/24 14:15:50;;;;;;;13.90;8.80;;;;;;;14.25;100.00;98122.16;273491;1260;22399;-83
2023/10/24 14:21:54;;;;;;;15.80;8.70;;;;;;;14.20;100.00;98111.92;273728;1266;22280;-81
2023/10/24 14:27:56;;;;;;;13.40;9.50;;;;;;;14.15;100.00;98104.91;272667;1267;22237;-82
2023/10/24 14:34:00;;;;;;;19.30;10.90;;;;;;;14.12;100.00;98103.23;273765;1267;22928;-81
2023/10/24 14:40:02;;;;;;;14.90;9.70;;;;;;;14.10;100.00;98092.27;273764;1266;22310;-82
2023/10/24 14:46:03;;;;;;;14.20;10.20;;;;;;;14.06;100.00;98084.63;273699;1267;22461;-82
2023/10/24 14:52:06;;;;;;;17.70;9.60;;;;;;;14.02;100.00;98075.19;273636;1267;22440;-82
2023/10/24 14:58:07;;;;;;;17.60;9.20;;;;;;;13.93;100.00;98045.31;273810;1267;22231;-82
2023/10/24 15:04:09;;;;;;;17.50;10.60;;;;;;;13.82;100.00;98028.20;272331;1266;22595;-82
2023/10/24 15:10:11;;;;;;;14.90;10.60;;;;;;;13.74;100.00;98032.36;271582;1262;22573;-81
2023/10/24 15:16:13;;;;;;;17.90;10.60;;;;;;;13.67;100.00;98033.97;271522;1265;22521;-81
2023/10/24 15:22:16;;;;;;;16.30;9.60;;;;;;;13.55;100.00;98020.02;273366;1267;22193;-81
2023/10/24 15:28:24;;;;;;;25.70;13.10;;;;;;;13.43;100.00;98014.02;273588;1267;22799;-83
2023/10/24 15:34:33;;;;;;;22.10;13.60;;;;;;;13.31;100.00;98000.21;273527;1267;23793;-82
2023/10/24 15:40:39;;;;;;;18.20;12.30;;;;;;;13.22;100.00;97994.46;273501;1267;22380;-82
2023/10/24 15:46:42;;;;;;;23.40;12.80;;;;;;;13.17;100.00;97996.05;273641;1267;22281;-83
2023/10/24 15:52:48;;;;;;;18.90;13.90;;;;;;;13.15;100.00;97992.22;273755;1267;22398;-82
2023/10/24 15:58:51;;;;;;;18.00;13.80;;;;;;;13.11;100.00;97998.41;273645;1267;22394;-82
2023/10/24 16:04:52;;;;;;;18.80;13.10;;;;;;;13.12;100.00;97996.75;273771;1267;22248;-82
2023/10/24 16:10:54;;;;;;;18.40;13.50;;;;;;;13.11;100.00;97983.73;273652;1267;23624;-82
2023/10/24 16:16:55;;;;;;;19.60;13.60;;;;;;;13.05;100.00;97969.22;273581;1267;22367;-82
2023/10/24 16:22:58;;;;;;;23.80;15.90;;;;;;;12.95;100.00;97944.47;273415;1267;22564;-82
2023/10/24 16:29:00;;;;;;;20.20;14.80;;;;;;;12.88;100.00;97932.79;273727;1267;22210;-82
2023/10/24 16:35:02;;;;;;;21.70;15.40;;;;;;;12.81;100.00;97908.41;273754;1267;22310;-82
2023/10/24 16:41:04;;;;;;;33.40;16.70;;;;;;;12.69;100.00;97888.42;272373;1267;22355;-82
2023/10/24 16:47:06;;;;;;;24.60;18.70;;;;;;;12.63;100.00;97882.33;272233;1266;22372;-82
2023/10/24 16:53:08;;;;;;;32.70;19.10;;;;;;;12.59;100.00;97882.45;273539;1267;22419;-83
2023/10/24 16:59:10;;;;;;;22.50;17.20;;;;;;;12.56;100.00;97892.86;272626;1267;22543;-83
2023/10/24 17:05:12;;;;;;;29.90;20.70;;;;;;;12.53;100.00;97882.47;272823;1267;22179;-83
2023/10/24 17:11:18;;;;;;;29.20;19.70;;;;;;;12.51;100.00;97879.21;273300;1267;22397;-83
2023/10/24 17:17:20;;;;;;;29.80;19.50;;;;;;;12.42;100.00;97860.42;272778;1267;22618;-82
2023/10/24 17:23:27;;;;;;;31.50;21.20;;;;;;;12.36;100.00;97841.06;273446;1267;22203;-82
2023/10/24 17:29:31;;;;;;;34.60;24.30;;;;;;;12.35;100.00;97831.28;273605;1267;22216;-82
2023/10/24 17:35:44;;;;;;;29.90;21.10;;;;;;;12.35;100.00;97826.73;273673;1267;23505;-82
2023/10/24 17:41:45;;;;;;;31.40;22.50;;;;;;;12.35;100.00;97809.19;273623;1267;23171;-82
2023/10/24 17:47:48;;;;;;;36.50;23.40;;;;;;;12.34;100.00;97803.39;273475;1267;22385;-82
2023/10/24 17:53:50;;;;;;;28.70;21.90;;;;;;;12.35;100.00;97795.31;273738;1270;23298;-82
2023/10/24 17:59:54;;;;;;;31.90;22.90;;;;;;;12.36;100.00;97782.73;273055;1262;382563;-82
2023/10/24 18:05:56;;;;;;;30.10;23.20;;;;;;;12.37;100.00;97769.15;273648;1267;23102;-83
2023/10/24 18:12:00;;;;;;;37.90;26.40;;;;;;;12.35;100.00;97759.86;273695;1267;22226;-82
2023/10/24 18:18:03;;;;;;;37.60;24.50;;;;;;;12.36;100.00;97762.74;273669;1269;23508;-82
2023/10/24 18:24:05;;;;;;;29.20;20.00;;;;;;;12.36;100.00;97766.75;273664;1267;22388;-82
2023/10/24 18:30:07;;;;;;;30.50;21.50;;;;;;;12.34;100.00;97756.58;273618;1267;22921;-82
2023/10/24 18:36:11;;;;;;;28.70;22.20;;;;;;;12.35;100.00;97740.50;273669;1266;22420;-82
2023/10/24 18:42:15;;;;;;;37.20;26.00;;;;;;;12.36;100.00;97737.95;273671;1267;23601;-82
2023/10/24 18:48:19;;;;;;;35.10;23.40;;;;;;;12.37;100.00;97746.35;273605;1267;22224;-82
2023/10/24 18:54:21;;;;;;;32.60;23.60;;;;;;;12.37;100.00;97749.87;273872;1269;22270;-81
2023/10/24 19:00:23;;;;;;;38.90;25.10;;;;;;;12.39;100.00;97751.73;273664;1267;24515;-82
2023/10/24 19:06:25;;;;;;;36.00;26.30;;;;;;;12.40;100.00;97749.44;273552;1256;23876;-82
2023/10/24 19:12:27;;;;;;;37.10;25.90;;;;;;;12.38;100.00;97745.39;273621;1267;22389;-83
2023/10/24 19:18:29;;;;;;;37.50;27.40;;;;;;;12.33;100.00;97760.05;273711;1267;22962;-84
2023/10/24 19:24:32;;;;;;;33.90;25.40;;;;;;;12.33;100.00;97756.98;272590;1266;22549;-85
2023/10/24 19:30:37;;;;;;;33.60;24.80;;;;;;;12.32;100.00;97736.85;272833;1267;23388;-84
2023/10/24 19:37:02;;;;;;;39.40;27.20;;;;;;;12.31;100.00;97730.35;273901;1267;23472;-84
2023/10/24 19:43:04;;;;;;;39.00;26.30;;;;;;;12.32;100.00;97725.33;273491;1267;22201;-84
2023/10/24 19:49:08;;;;;;;35.00;25.50;;;;;;;12.35;100.00;97721.69;273518;1267;22453;-84
2023/10/24 19:55:17;;;;;;;35.70;25.20;;;;;;;12.36;100.00;97724.09;273541;1262;23946;-84
2023/10/24 20:01:24;;;;;;;34.90;25.70;;;;;;;12.34;100.00;97717.31;273765;1256;23303;-84
2023/10/24 20:07:26;;;;;;;40.60;27.20;;;;;;;12.33;100.00;97714.57;273492;1267;22514;-84
2023/10/24 20:13:34;;;;;;;45.80;29.50;;;;;;;12.35;100.00;97711.18;265965;1267;10002034;-84
2023/10/24 20:19:37;;;;;;;40.80;28.30;;;;;;;12.33;100.00;97697.88;272542;1267;23703;-84
2023/10/24 20:25:40;;;;;;;42.10;29.10;;;;;;;12.31;100.00;97691.64;272120;1267;23658;-85
2023/10/24 20:32:04;;;;;;;37.50;27.00;;;;;;;12.32;100.00;97691.08;272560;1267;22416;-85
2023/10/24 20:38:06;;;;;;;39.80;26.90;;;;;;;12.33;100.00;97685.64;273668;1267;22361;-85
2023/10/24 20:44:08;;;;;;;34.90;26.40;;;;;;;12.32;100.00;97671.09;273627;1267;23428;-86
2023/10/24 20:50:11;;;;;;;39.30;26.00;;;;;;;12.32;100.00;97665.35;272652;1258;22553;-86
2023/10/24 20:56:13;;;;;;;33.80;20.70;;;;;;;12.34;100.00;97664.54;272584;1267;22455;-85
2023/10/24 21:02:15;;;;;;;31.10;19.20;;;;;;;12.36;100.00;97664.51;273407;1266;23638;-86
2023/10/24 21:08:17;;;;;;;34.00;16.90;;;;;;;12.42;100.00;97662.27;273489;1269;22291;-86
2023/10/24 21:14:20;;;;;;;31.30;15.50;;;;;;;12.53;100.00;97652.91;271639;1267;22504;-86
2023/10/24 21:20:22;;;;;;;26.10;15.30;;;;;;;12.60;100.00;97634.66;273256;1267;22367;-86
2023/10/24 21:27:07;;;;;;;26.20;14.00;;;;;;;12.65;100.00;97625.70;273462;1267;23495;-85
2023/10/24 21:33:10;;;;;;;32.00;13.40;;;;;;;12.69;100.00;97613.34;273301;1266;22526;-85
2023/10/24 21:39:12;;;;;;;25.30;13.20;;;;;;;12.71;100.00;97602.07;271602;1267;23675;-84
2023/10/24 21:45:16;;;;;;;21.70;13.00;;;;;;;12.72;100.00;97589.66;271531;1267;22551;-86
2023/10/24 21:51:20;;;;;;;27.40;12.10;;;;;;;12.72;100.00;97578.91;273368;1267;22393;-86
2023/10/24 21:57:29;;;;;;;29.30;12.50;;;;;;;12.71;100.00;97570.30;273583;1267;22213;-85
2023/10/24 22:03:32;;;;;;;33.90;12.20;;;;;;;12.72;100.00;97563.75;273769;1269;22384;-86
2023/10/24 22:09:37;;;;;;;23.90;10.10;;;;;;;12.72;100.00;97551.92;273633;1271;22491;-85
2023/10/24 22:15:58;;;;;;;22.70;9.40;;;;;;;12.72;100.00;97547.61;273492;1267;22195;-86
2023/10/24 22:22:01;;;;;;;21.50;11.50;;;;;;;12.71;100.00;97537.20;271969;1267;22604;-85
2023/10/24 22:28:03;;;;;;;20.50;10.40;;;;;;;12.69;100.00;97530.48;272827;1267;22190;-85
2023/10/24 22:34:08;;;;;;;24.80;10.10;;;;;;;12.67;100.00;97525.90;273600;1267;22214;-86
2023/10/24 22:40:10;;;;;;;30.50;10.90;;;;;;;12.65;100.00;97519.59;273544;1266;23333;-84
2023/10/24 22:46:12;;;;;;;19.70;9.90;;;;;;;12.65;100.00;97508.92;273697;1267;22303;-86
2023/10/24 22:52:16;;;;;;;20.50;9.40;;;;;;;12.63;100.00;97500.01;272877;1267;23583;-86
2023/10/24 22:58:18;;;;;;;29.20;10.60;;;;;;;12.63;100.00;97496.48;273684;1266;22169;-85
2023/10/24 23:04:20;;;;;;;24.40;10.20;;;;;;;12.63;100.00;97490.60;273509;1267;22535;-83
2023/10/24 23:10:22;;;;;;;28.80;10.70;;;;;;;12.62;100.00;97486.14;271346;1251;23559;-86
2023/10/24 23:16:24;;;;;;;22.20;9.20;;;;;;;12.61;100.00;97483.26;272824;1267;23670;-85
2023/10/24 23:22:26;;;;;;;28.10;9.40;;;;;;;12.62;100.00;97480.66;272750;1266;23160;-84
2023/10/24 23:28:28;;;;;;;23.90;8.60;;;;;;;12.63;100.00;97477.66;273722;1268;23596;-84
2023/10/24 23:34:32;;;;;;;19.20;8.90;;;;;;;12.64;100.00;97469.16;273974;1260;22165;-85
2023/10/24 23:40:34;;;;;;;25.60;10.70;;;;;;;12.65;100.00;97457.93;273594;1269;22413;-84
2023/10/24 23:46:36;;;;;;;25.30;10.10;;;;;;;12.64;100.00;97447.36;273603;1267;22391;-84
2023/10/24 23:52:58;;;;;;;26.80;9.80;;;;;;;12.65;100.00;97436.27;273221;1267;22530;-84
2023/10/24 23:59:00;;;;;;;28.10;11.00;;;;;;;12.64;100.00;97424.62;271842;1267;23289;-86
